sensor_id;sensor_type;location;lat;lon;timestamp;P1;durP1;ratioP1;P2;durP2;ratioP2
39022;SDS011;25908;51.984;5.928;2022-08-30T00:02:34;8.40;;;3.25;;
39022;SDS011;25908;51.984;5.928;2022-08-30T00:05:00;4.05;;;2.80;;
39022;SDS011;25908;51.984;5.928;2022-08-30T00:07:26;6.97;;;2.95;;
39022;SDS011;25908;51.984;5.928;2022-08-30T00:09:52;5.13;;;3.33;;
39022;SDS011;25908;51.984;5.928;2022-08-30T00:12:17;7.50;;;2.92;;
39022;SDS011;25908;51.984;5.928;2022-08-30T00:14:45;6.70;;;3.45;;
39022;SDS011;25908;51.984;5.928;2022-08-30T00:17:11;6.32;;;3.17;;
39022;SDS011;25908;51.984;5.928;2022-08-30T00:19:36;7.68;;;3.90;;
39022;SDS011;25908;51.984;5.928;2022-08-30T00:22:02;6.80;;;3.20;;
39022;SDS011;25908;51.984;5.928;2022-08-30T00:24:29;5.68;;;3.70;;
39022;SDS011;25908;51.984;5.928;2022-08-30T00:26:54;7.75;;;4.15;;
39022;SDS011;25908;51.984;5.928;2022-08-30T00:29:20;6.10;;;3.50;;
39022;SDS011;25908;51.984;5.928;2022-08-30T00:31:46;9.57;;;4.20;;
39022;SDS011;25908;51.984;5.928;2022-08-30T00:34:11;7.40;;;4.10;;
39022;SDS011;25908;51.984;5.928;2022-08-30T00:36:37;7.22;;;4.47;;
39022;SDS011;25908;51.984;5.928;2022-08-30T00:39:03;4.75;;;3.53;;
39022;SDS011;25908;51.984;5.928;2022-08-30T00:41:30;5.68;;;3.63;;
39022;SDS011;25908;51.984;5.928;2022-08-30T00:43:56;7.13;;;3.92;;
39022;SDS011;25908;51.984;5.928;2022-08-30T00:46:21;7.57;;;4.03;;
39022;SDS011;25908;51.984;5.928;2022-08-30T00:48:47;5.85;;;4.05;;
39022;SDS011;25908;51.984;5.928;2022-08-30T00:51:15;7.32;;;4.35;;
39022;SDS011;25908;51.984;5.928;2022-08-30T00:53:44;5.50;;;3.97;;
39022;SDS011;25908;51.984;5.928;2022-08-30T00:56:13;8.05;;;4.43;;
39022;SDS011;25908;51.984;5.928;2022-08-30T00:58:40;7.45;;;4.22;;
39022;SDS011;25908;51.984;5.928;2022-08-30T01:01:09;6.47;;;4.25;;
39022;SDS011;25908;51.984;5.928;2022-08-30T01:03:35;7.60;;;4.90;;
39022;SDS011;25908;51.984;5.928;2022-08-30T01:06:03;6.57;;;4.20;;
39022;SDS011;25908;51.984;5.928;2022-08-30T01:08:30;6.70;;;4.30;;
39022;SDS011;25908;51.984;5.928;2022-08-30T01:10:55;8.07;;;4.35;;
39022;SDS011;25908;51.984;5.928;2022-08-30T01:13:22;7.43;;;3.92;;
39022;SDS011;25908;51.984;5.928;2022-08-30T01:15:50;5.93;;;4.47;;
39022;SDS011;25908;51.984;5.928;2022-08-30T01:18:17;5.60;;;4.03;;
39022;SDS011;25908;51.984;5.928;2022-08-30T01:23:32;9.32;;;5.25;;
39022;SDS011;25908;51.984;5.928;2022-08-30T01:26:00;5.90;;;4.40;;
39022;SDS011;25908;51.984;5.928;2022-08-30T01:28:27;8.52;;;4.65;;
39022;SDS011;25908;51.984;5.928;2022-08-30T01:30:54;8.05;;;3.80;;
39022;SDS011;25908;51.984;5.928;2022-08-30T01:33:20;5.95;;;4.00;;
39022;SDS011;25908;51.984;5.928;2022-08-30T01:35:51;6.20;;;4.45;;
39022;SDS011;25908;51.984;5.928;2022-08-30T01:38:27;5.50;;;4.05;;
39022;SDS011;25908;51.984;5.928;2022-08-30T01:40:59;5.57;;;4.05;;
39022;SDS011;25908;51.984;5.928;2022-08-30T01:43:32;6.80;;;4.47;;
39022;SDS011;25908;51.984;5.928;2022-08-30T01:45:57;6.32;;;4.07;;
39022;SDS011;25908;51.984;5.928;2022-08-30T01:48:24;7.85;;;4.68;;
39022;SDS011;25908;51.984;5.928;2022-08-30T01:50:49;6.75;;;4.75;;
39022;SDS011;25908;51.984;5.928;2022-08-30T01:53:16;8.20;;;4.75;;
39022;SDS011;25908;51.984;5.928;2022-08-30T01:55:41;5.55;;;4.05;;
39022;SDS011;25908;51.984;5.928;2022-08-30T01:58:07;7.95;;;5.03;;
39022;SDS011;25908;51.984;5.928;2022-08-30T02:00:33;7.03;;;4.28;;
39022;SDS011;25908;51.984;5.928;2022-08-30T02:02:58;6.05;;;4.97;;
39022;SDS011;25908;51.984;5.928;2022-08-30T02:05:24;6.45;;;4.53;;
39022;SDS011;25908;51.984;5.928;2022-08-30T02:07:49;6.30;;;4.70;;
39022;SDS011;25908;51.984;5.928;2022-08-30T02:10:15;6.47;;;4.88;;
39022;SDS011;25908;51.984;5.928;2022-08-30T02:12:41;6.25;;;4.50;;
39022;SDS011;25908;51.984;5.928;2022-08-30T02:15:07;7.13;;;4.85;;
39022;SDS011;25908;51.984;5.928;2022-08-30T02:17:33;6.65;;;4.90;;
39022;SDS011;25908;51.984;5.928;2022-08-30T02:19:59;8.48;;;5.22;;
39022;SDS011;25908;51.984;5.928;2022-08-30T02:22:25;6.53;;;5.30;;
39022;SDS011;25908;51.984;5.928;2022-08-30T02:24:50;6.63;;;4.90;;
39022;SDS011;25908;51.984;5.928;2022-08-30T02:27:16;6.32;;;4.97;;
39022;SDS011;25908;51.984;5.928;2022-08-30T02:29:41;6.10;;;4.72;;
39022;SDS011;25908;51.984;5.928;2022-08-30T02:32:07;5.80;;;5.18;;
39022;SDS011;25908;51.984;5.928;2022-08-30T02:34:32;8.38;;;5.60;;
39022;SDS011;25908;51.984;5.928;2022-08-30T02:36:58;6.15;;;4.95;;
39022;SDS011;25908;51.984;5.928;2022-08-30T02:39:25;6.53;;;5.13;;
39022;SDS011;25908;51.984;5.928;2022-08-30T02:41:51;6.55;;;5.18;;
39022;SDS011;25908;51.984;5.928;2022-08-30T02:44:16;11.43;;;5.50;;
39022;SDS011;25908;51.984;5.928;2022-08-30T02:46:42;7.10;;;5.25;;
39022;SDS011;25908;51.984;5.928;2022-08-30T02:49:08;7.45;;;6.07;;
39022;SDS011;25908;51.984;5.928;2022-08-30T02:51:33;7.07;;;5.95;;
39022;SDS011;25908;51.984;5.928;2022-08-30T02:53:59;7.53;;;5.68;;
39022;SDS011;25908;51.984;5.928;2022-08-30T02:56:24;7.85;;;5.93;;
39022;SDS011;25908;51.984;5.928;2022-08-30T02:58:52;6.60;;;5.57;;
39022;SDS011;25908;51.984;5.928;2022-08-30T03:01:18;8.43;;;5.88;;
39022;SDS011;25908;51.984;5.928;2022-08-30T03:03:44;7.22;;;5.82;;
39022;SDS011;25908;51.984;5.928;2022-08-30T03:06:11;9.35;;;6.05;;
39022;SDS011;25908;51.984;5.928;2022-08-30T03:08:37;7.85;;;5.97;;
39022;SDS011;25908;51.984;5.928;2022-08-30T03:11:02;8.55;;;5.82;;
39022;SDS011;25908;51.984;5.928;2022-08-30T03:13:29;9.00;;;6.25;;
39022;SDS011;25908;51.984;5.928;2022-08-30T03:15:55;7.70;;;5.78;;
39022;SDS011;25908;51.984;5.928;2022-08-30T03:18:21;10.48;;;6.43;;
39022;SDS011;25908;51.984;5.928;2022-08-30T03:20:47;7.45;;;6.13;;
39022;SDS011;25908;51.984;5.928;2022-08-30T03:23:14;8.25;;;6.15;;
39022;SDS011;25908;51.984;5.928;2022-08-30T03:25:41;9.25;;;6.38;;
39022;SDS011;25908;51.984;5.928;2022-08-30T03:28:06;7.85;;;6.97;;
39022;SDS011;25908;51.984;5.928;2022-08-30T03:30:32;8.00;;;6.28;;
39022;SDS011;25908;51.984;5.928;2022-08-30T03:32:59;9.40;;;6.80;;
39022;SDS011;25908;51.984;5.928;2022-08-30T03:35:25;12.13;;;6.88;;
39022;SDS011;25908;51.984;5.928;2022-08-30T03:37:51;8.85;;;7.03;;
39022;SDS011;25908;51.984;5.928;2022-08-30T03:40:18;10.43;;;6.55;;
39022;SDS011;25908;51.984;5.928;2022-08-30T03:42:45;9.90;;;6.70;;
39022;SDS011;25908;51.984;5.928;2022-08-30T03:45:13;8.75;;;6.95;;
39022;SDS011;25908;51.984;5.928;2022-08-30T03:47:40;8.82;;;6.38;;
39022;SDS011;25908;51.984;5.928;2022-08-30T03:50:06;7.65;;;6.13;;
39022;SDS011;25908;51.984;5.928;2022-08-30T03:52:33;8.88;;;6.60;;
39022;SDS011;25908;51.984;5.928;2022-08-30T03:54:59;7.60;;;6.60;;
39022;SDS011;25908;51.984;5.928;2022-08-30T03:57:25;8.73;;;6.38;;
39022;SDS011;25908;51.984;5.928;2022-08-30T03:59:52;8.15;;;6.10;;
39022;SDS011;25908;51.984;5.928;2022-08-30T04:02:17;8.82;;;5.88;;
39022;SDS011;25908;51.984;5.928;2022-08-30T04:04:43;11.38;;;7.03;;
39022;SDS011;25908;51.984;5.928;2022-08-30T04:07:09;7.88;;;6.47;;
39022;SDS011;25908;51.984;5.928;2022-08-30T04:09:35;8.20;;;5.72;;
39022;SDS011;25908;51.984;5.928;2022-08-30T04:12:00;7.00;;;5.90;;
39022;SDS011;25908;51.984;5.928;2022-08-30T04:14:26;11.02;;;5.40;;
39022;SDS011;25908;51.984;5.928;2022-08-30T04:16:51;6.60;;;5.63;;
39022;SDS011;25908;51.984;5.928;2022-08-30T04:19:17;7.07;;;5.65;;
39022;SDS011;25908;51.984;5.928;2022-08-30T04:21:43;7.00;;;5.35;;
39022;SDS011;25908;51.984;5.928;2022-08-30T04:24:09;9.07;;;5.40;;
39022;SDS011;25908;51.984;5.928;2022-08-30T04:26:35;6.20;;;5.20;;
39022;SDS011;25908;51.984;5.928;2022-08-30T04:29:00;6.63;;;4.78;;
39022;SDS011;25908;51.984;5.928;2022-08-30T04:31:26;7.68;;;5.25;;
39022;SDS011;25908;51.984;5.928;2022-08-30T04:33:52;6.53;;;4.38;;
39022;SDS011;25908;51.984;5.928;2022-08-30T04:36:17;8.05;;;4.97;;
39022;SDS011;25908;51.984;5.928;2022-08-30T04:38:43;6.55;;;4.28;;
39022;SDS011;25908;51.984;5.928;2022-08-30T04:41:11;7.22;;;4.43;;
39022;SDS011;25908;51.984;5.928;2022-08-30T04:43:40;6.50;;;4.85;;
39022;SDS011;25908;51.984;5.928;2022-08-30T04:46:07;5.43;;;4.80;;
39022;SDS011;25908;51.984;5.928;2022-08-30T04:48:34;5.78;;;3.95;;
39022;SDS011;25908;51.984;5.928;2022-08-30T04:51:02;4.80;;;3.97;;
39022;SDS011;25908;51.984;5.928;2022-08-30T04:53:29;5.75;;;3.70;;
39022;SDS011;25908;51.984;5.928;2022-08-30T04:55:55;7.57;;;3.53;;
39022;SDS011;25908;51.984;5.928;2022-08-30T04:58:21;6.75;;;4.10;;
39022;SDS011;25908;51.984;5.928;2022-08-30T05:00:46;5.68;;;3.60;;
39022;SDS011;25908;51.984;5.928;2022-08-30T05:03:12;3.95;;;2.78;;
39022;SDS011;25908;51.984;5.928;2022-08-30T05:05:37;6.43;;;2.95;;
39022;SDS011;25908;51.984;5.928;2022-08-30T05:08:03;4.28;;;3.17;;
39022;SDS011;25908;51.984;5.928;2022-08-30T05:10:37;5.53;;;3.15;;
39022;SDS011;25908;51.984;5.928;2022-08-30T05:13:08;4.97;;;2.95;;
39022;SDS011;25908;51.984;5.928;2022-08-30T05:15:35;5.28;;;3.03;;
39022;SDS011;25908;51.984;5.928;2022-08-30T05:18:02;5.60;;;3.25;;
39022;SDS011;25908;51.984;5.928;2022-08-30T05:20:28;5.00;;;2.80;;
39022;SDS011;25908;51.984;5.928;2022-08-30T05:22:54;4.63;;;3.13;;
39022;SDS011;25908;51.984;5.928;2022-08-30T05:25:23;5.22;;;3.08;;
39022;SDS011;25908;51.984;5.928;2022-08-30T05:27:51;7.18;;;3.95;;
39022;SDS011;25908;51.984;5.928;2022-08-30T05:30:18;5.97;;;3.30;;
39022;SDS011;25908;51.984;5.928;2022-08-30T05:32:44;5.25;;;3.60;;
39022;SDS011;25908;51.984;5.928;2022-08-30T05:35:10;4.68;;;3.67;;
39022;SDS011;25908;51.984;5.928;2022-08-30T05:37:38;7.20;;;3.95;;
39022;SDS011;25908;51.984;5.928;2022-08-30T05:40:04;6.75;;;3.45;;
39022;SDS011;25908;51.984;5.928;2022-08-30T05:42:31;4.82;;;3.20;;
39022;SDS011;25908;51.984;5.928;2022-08-30T05:44:57;7.00;;;3.70;;
39022;SDS011;25908;51.984;5.928;2022-08-30T05:47:23;5.15;;;3.15;;
39022;SDS011;25908;51.984;5.928;2022-08-30T05:49:48;5.95;;;3.17;;
39022;SDS011;25908;51.984;5.928;2022-08-30T05:52:14;10.23;;;3.67;;
39022;SDS011;25908;51.984;5.928;2022-08-30T05:54:42;4.63;;;2.70;;
39022;SDS011;25908;51.984;5.928;2022-08-30T05:57:08;6.07;;;3.15;;
39022;SDS011;25908;51.984;5.928;2022-08-30T05:59:34;5.20;;;2.90;;
39022;SDS011;25908;51.984;5.928;2022-08-30T06:01:59;5.40;;;3.20;;
39022;SDS011;25908;51.984;5.928;2022-08-30T06:04:25;4.45;;;2.42;;
39022;SDS011;25908;51.984;5.928;2022-08-30T06:06:51;4.85;;;2.80;;
39022;SDS011;25908;51.984;5.928;2022-08-30T06:09:16;4.95;;;2.45;;
39022;SDS011;25908;51.984;5.928;2022-08-30T06:11:43;2.92;;;2.00;;
39022;SDS011;25908;51.984;5.928;2022-08-30T06:14:09;3.15;;;1.88;;
39022;SDS011;25908;51.984;5.928;2022-08-30T06:16:36;5.45;;;2.63;;
39022;SDS011;25908;51.984;5.928;2022-08-30T06:19:03;4.53;;;2.28;;
39022;SDS011;25908;51.984;5.928;2022-08-30T06:21:30;2.90;;;1.80;;
39022;SDS011;25908;51.984;5.928;2022-08-30T06:23:58;3.50;;;2.25;;
39022;SDS011;25908;51.984;5.928;2022-08-30T06:26:25;3.47;;;2.10;;
39022;SDS011;25908;51.984;5.928;2022-08-30T06:28:51;4.72;;;2.10;;
39022;SDS011;25908;51.984;5.928;2022-08-30T06:31:18;5.43;;;1.92;;
39022;SDS011;25908;51.984;5.928;2022-08-30T06:33:44;5.10;;;2.00;;
39022;SDS011;25908;51.984;5.928;2022-08-30T06:36:13;3.58;;;1.95;;
39022;SDS011;25908;51.984;5.928;2022-08-30T06:38:41;3.83;;;2.25;;
39022;SDS011;25908;51.984;5.928;2022-08-30T06:41:08;7.63;;;2.67;;
39022;SDS011;25908;51.984;5.928;2022-08-30T06:43:35;3.83;;;1.90;;
39022;SDS011;25908;51.984;5.928;2022-08-30T06:46:05;3.65;;;1.95;;
39022;SDS011;25908;51.984;5.928;2022-08-30T06:48:34;4.50;;;2.10;;
39022;SDS011;25908;51.984;5.928;2022-08-30T06:51:00;5.90;;;2.67;;
39022;SDS011;25908;51.984;5.928;2022-08-30T06:53:26;5.32;;;2.15;;
39022;SDS011;25908;51.984;5.928;2022-08-30T06:56:00;4.32;;;2.03;;
39022;SDS011;25908;51.984;5.928;2022-08-30T06:58:28;5.10;;;1.80;;
39022;SDS011;25908;51.984;5.928;2022-08-30T07:00:55;5.03;;;2.22;;
39022;SDS011;25908;51.984;5.928;2022-08-30T07:03:21;3.10;;;1.70;;
39022;SDS011;25908;51.984;5.928;2022-08-30T07:05:47;3.83;;;1.90;;
39022;SDS011;25908;51.984;5.928;2022-08-30T07:08:13;2.88;;;1.60;;
39022;SDS011;25908;51.984;5.928;2022-08-30T07:10:39;3.22;;;1.50;;
39022;SDS011;25908;51.984;5.928;2022-08-30T07:13:05;2.90;;;1.38;;
39022;SDS011;25908;51.984;5.928;2022-08-30T07:15:31;4.78;;;1.70;;
39022;SDS011;25908;51.984;5.928;2022-08-30T07:17:57;3.20;;;1.55;;
39022;SDS011;25908;51.984;5.928;2022-08-30T07:20:41;2.95;;;1.58;;
39022;SDS011;25908;51.984;5.928;2022-08-30T07:23:07;1.90;;;1.35;;
39022;SDS011;25908;51.984;5.928;2022-08-30T07:25:34;3.50;;;1.48;;
39022;SDS011;25908;51.984;5.928;2022-08-30T07:28:01;2.97;;;1.42;;
39022;SDS011;25908;51.984;5.928;2022-08-30T07:30:26;2.70;;;1.15;;
39022;SDS011;25908;51.984;5.928;2022-08-30T07:32:52;7.43;;;1.70;;
39022;SDS011;25908;51.984;5.928;2022-08-30T07:35:18;2.75;;;1.40;;
39022;SDS011;25908;51.984;5.928;2022-08-30T07:37:43;3.25;;;1.13;;
39022;SDS011;25908;51.984;5.928;2022-08-30T07:40:10;3.35;;;1.30;;
39022;SDS011;25908;51.984;5.928;2022-08-30T07:42:36;4.30;;;1.27;;
39022;SDS011;25908;51.984;5.928;2022-08-30T07:45:02;4.90;;;1.40;;
39022;SDS011;25908;51.984;5.928;2022-08-30T07:47:28;4.28;;;1.10;;
39022;SDS011;25908;51.984;5.928;2022-08-30T07:49:53;1.88;;;0.95;;
39022;SDS011;25908;51.984;5.928;2022-08-30T07:52:19;1.98;;;1.23;;
39022;SDS011;25908;51.984;5.928;2022-08-30T07:54:44;3.17;;;0.90;;
39022;SDS011;25908;51.984;5.928;2022-08-30T07:57:10;2.38;;;0.85;;
39022;SDS011;25908;51.984;5.928;2022-08-30T07:59:35;1.75;;;1.00;;
39022;SDS011;25908;51.984;5.928;2022-08-30T08:02:01;3.83;;;0.90;;
39022;SDS011;25908;51.984;5.928;2022-08-30T08:04:27;4.30;;;1.10;;
39022;SDS011;25908;51.984;5.928;2022-08-30T08:06:52;3.38;;;0.80;;
39022;SDS011;25908;51.984;5.928;2022-08-30T08:09:18;2.55;;;0.90;;
39022;SDS011;25908;51.984;5.928;2022-08-30T08:11:44;1.95;;;0.70;;
39022;SDS011;25908;51.984;5.928;2022-08-30T08:14:09;1.92;;;0.75;;
39022;SDS011;25908;51.984;5.928;2022-08-30T08:16:35;2.58;;;0.95;;
39022;SDS011;25908;51.984;5.928;2022-08-30T08:19:02;2.55;;;0.90;;
39022;SDS011;25908;51.984;5.928;2022-08-30T08:21:30;4.05;;;0.95;;
39022;SDS011;25908;51.984;5.928;2022-08-30T08:23:56;2.28;;;0.82;;
39022;SDS011;25908;51.984;5.928;2022-08-30T08:26:21;2.08;;;0.90;;
39022;SDS011;25908;51.984;5.928;2022-08-30T08:28:47;2.45;;;0.80;;
39022;SDS011;25908;51.984;5.928;2022-08-30T08:31:14;7.95;;;1.42;;
39022;SDS011;25908;51.984;5.928;2022-08-30T08:33:58;5.55;;;1.10;;
39022;SDS011;25908;51.984;5.928;2022-08-30T08:36:24;2.25;;;0.82;;
39022;SDS011;25908;51.984;5.928;2022-08-30T08:38:51;1.45;;;0.70;;
39022;SDS011;25908;51.984;5.928;2022-08-30T08:41:25;2.60;;;0.98;;
39022;SDS011;25908;51.984;5.928;2022-08-30T08:44:02;3.45;;;0.95;;
39022;SDS011;25908;51.984;5.928;2022-08-30T08:46:40;1.83;;;0.77;;
39022;SDS011;25908;51.984;5.928;2022-08-30T08:49:20;2.90;;;0.80;;
39022;SDS011;25908;51.984;5.928;2022-08-30T08:51:46;2.72;;;1.20;;
39022;SDS011;25908;51.984;5.928;2022-08-30T08:54:32;2.72;;;1.00;;
39022;SDS011;25908;51.984;5.928;2022-08-30T08:57:04;2.00;;;0.90;;
39022;SDS011;25908;51.984;5.928;2022-08-30T08:59:29;2.75;;;1.10;;
39022;SDS011;25908;51.984;5.928;2022-08-30T09:01:59;2.20;;;0.85;;
39022;SDS011;25908;51.984;5.928;2022-08-30T09:04:33;4.63;;;1.35;;
39022;SDS011;25908;51.984;5.928;2022-08-30T09:07:13;4.07;;;1.05;;
39022;SDS011;25908;51.984;5.928;2022-08-30T09:09:48;3.50;;;0.90;;
39022;SDS011;25908;51.984;5.928;2022-08-30T09:12:14;2.70;;;0.80;;
39022;SDS011;25908;51.984;5.928;2022-08-30T09:14:47;2.22;;;1.00;;
39022;SDS011;25908;51.984;5.928;2022-08-30T09:17:18;2.47;;;0.77;;
39022;SDS011;25908;51.984;5.928;2022-08-30T09:19:45;2.17;;;1.13;;
39022;SDS011;25908;51.984;5.928;2022-08-30T09:22:24;3.22;;;1.38;;
39022;SDS011;25908;51.984;5.928;2022-08-30T09:25:01;2.42;;;0.93;;
39022;SDS011;25908;51.984;5.928;2022-08-30T09:27:30;3.05;;;1.17;;
39022;SDS011;25908;51.984;5.928;2022-08-30T09:30:05;2.03;;;0.70;;
39022;SDS011;25908;51.984;5.928;2022-08-30T09:32:45;2.13;;;1.00;;
39022;SDS011;25908;51.984;5.928;2022-08-30T09:35:37;2.90;;;1.27;;
39022;SDS011;25908;51.984;5.928;2022-08-30T09:38:07;2.67;;;0.90;;
39022;SDS011;25908;51.984;5.928;2022-08-30T09:40:47;3.63;;;1.48;;
39022;SDS011;25908;51.984;5.928;2022-08-30T09:43:19;3.30;;;0.85;;
39022;SDS011;25908;51.984;5.928;2022-08-30T09:48:44;2.70;;;0.90;;
39022;SDS011;25908;51.984;5.928;2022-08-30T09:53:44;3.67;;;0.80;;
39022;SDS011;25908;51.984;5.928;2022-08-30T09:56:39;6.57;;;1.13;;
39022;SDS011;25908;51.984;5.928;2022-08-30T10:02:26;2.90;;;0.98;;
39022;SDS011;25908;51.984;5.928;2022-08-30T10:10:32;5.63;;;1.13;;
39022;SDS011;25908;51.984;5.928;2022-08-30T10:15:57;3.55;;;1.35;;
39022;SDS011;25908;51.984;5.928;2022-08-30T10:18:27;2.95;;;0.90;;
39022;SDS011;25908;51.984;5.928;2022-08-30T10:21:19;2.47;;;0.82;;
39022;SDS011;25908;51.984;5.928;2022-08-30T10:24:07;3.90;;;1.00;;
39022;SDS011;25908;51.984;5.928;2022-08-30T10:26:38;3.97;;;1.00;;
39022;SDS011;25908;51.984;5.928;2022-08-30T10:29:23;2.03;;;1.00;;
39022;SDS011;25908;51.984;5.928;2022-08-30T10:34:32;2.70;;;0.90;;
39022;SDS011;25908;51.984;5.928;2022-08-30T10:37:08;4.30;;;1.10;;
39022;SDS011;25908;51.984;5.928;2022-08-30T10:39:45;6.18;;;1.30;;
39022;SDS011;25908;51.984;5.928;2022-08-30T10:42:21;1.92;;;0.80;;
39022;SDS011;25908;51.984;5.928;2022-08-30T10:45:06;2.55;;;0.90;;
39022;SDS011;25908;51.984;5.928;2022-08-30T10:50:12;2.55;;;0.98;;
39022;SDS011;25908;51.984;5.928;2022-08-30T10:55:29;5.32;;;0.90;;
39022;SDS011;25908;51.984;5.928;2022-08-30T10:57:58;2.38;;;1.20;;
39022;SDS011;25908;51.984;5.928;2022-08-30T11:00:26;2.17;;;0.93;;
39022;SDS011;25908;51.984;5.928;2022-08-30T11:05:58;3.50;;;1.20;;
39022;SDS011;25908;51.984;5.928;2022-08-30T11:08:52;1.85;;;0.80;;
39022;SDS011;25908;51.984;5.928;2022-08-30T11:11:54;2.40;;;1.00;;
39022;SDS011;25908;51.984;5.928;2022-08-30T11:14:42;3.88;;;1.50;;
39022;SDS011;25908;51.984;5.928;2022-08-30T11:19:57;2.40;;;1.10;;
39022;SDS011;25908;51.984;5.928;2022-08-30T11:22:29;2.47;;;1.10;;
39022;SDS011;25908;51.984;5.928;2022-08-30T11:25:05;5.15;;;1.17;;
39022;SDS011;25908;51.984;5.928;2022-08-30T11:27:40;2.90;;;1.10;;
39022;SDS011;25908;51.984;5.928;2022-08-30T11:33:00;3.63;;;1.30;;
39022;SDS011;25908;51.984;5.928;2022-08-30T11:35:35;2.65;;;1.20;;
39022;SDS011;25908;51.984;5.928;2022-08-30T11:38:10;2.50;;;0.98;;
39022;SDS011;25908;51.984;5.928;2022-08-30T11:41:05;4.32;;;0.90;;
39022;SDS011;25908;51.984;5.928;2022-08-30T11:48:41;2.50;;;1.20;;
39022;SDS011;25908;51.984;5.928;2022-08-30T11:51:12;3.63;;;1.05;;
39022;SDS011;25908;51.984;5.928;2022-08-30T11:53:59;3.42;;;1.20;;
39022;SDS011;25908;51.984;5.928;2022-08-30T11:56:48;5.25;;;1.15;;
39022;SDS011;25908;51.984;5.928;2022-08-30T12:05:03;2.85;;;0.93;;
39022;SDS011;25908;51.984;5.928;2022-08-30T12:10:23;3.33;;;1.30;;
39022;SDS011;25908;51.984;5.928;2022-08-30T12:13:00;6.50;;;1.25;;
39022;SDS011;25908;51.984;5.928;2022-08-30T12:18:44;2.00;;;0.80;;
39022;SDS011;25908;51.984;5.928;2022-08-30T12:24:14;4.95;;;1.05;;
39022;SDS011;25908;51.984;5.928;2022-08-30T12:26:43;3.67;;;1.20;;
39022;SDS011;25908;51.984;5.928;2022-08-30T12:29:29;3.60;;;1.08;;
39022;SDS011;25908;51.984;5.928;2022-08-30T12:32:02;2.92;;;1.00;;
39022;SDS011;25908;51.984;5.928;2022-08-30T12:42:16;3.75;;;0.93;;
39022;SDS011;25908;51.984;5.928;2022-08-30T12:44:42;3.10;;;0.93;;
39022;SDS011;25908;51.984;5.928;2022-08-30T12:47:09;4.03;;;1.30;;
39022;SDS011;25908;51.984;5.928;2022-08-30T12:49:37;2.63;;;1.13;;
39022;SDS011;25908;51.984;5.928;2022-08-30T12:52:14;4.32;;;1.83;;
39022;SDS011;25908;51.984;5.928;2022-08-30T12:54:50;6.75;;;1.25;;
39022;SDS011;25908;51.984;5.928;2022-08-30T12:57:34;3.38;;;1.10;;
39022;SDS011;25908;51.984;5.928;2022-08-30T13:00:00;2.83;;;1.08;;
39022;SDS011;25908;51.984;5.928;2022-08-30T13:02:27;6.50;;;1.27;;
39022;SDS011;25908;51.984;5.928;2022-08-30T13:05:29;2.20;;;1.00;;
39022;SDS011;25908;51.984;5.928;2022-08-30T13:08:15;4.25;;;1.15;;
39022;SDS011;25908;51.984;5.928;2022-08-30T13:10:47;2.45;;;1.10;;
39022;SDS011;25908;51.984;5.928;2022-08-30T13:13:44;2.60;;;1.00;;
39022;SDS011;25908;51.984;5.928;2022-08-30T13:18:44;3.03;;;1.02;;
39022;SDS011;25908;51.984;5.928;2022-08-30T13:21:45;2.03;;;0.90;;
39022;SDS011;25908;51.984;5.928;2022-08-30T13:24:15;3.10;;;1.10;;
39022;SDS011;25908;51.984;5.928;2022-08-30T13:26:41;2.47;;;1.02;;
39022;SDS011;25908;51.984;5.928;2022-08-30T13:29:13;3.85;;;1.25;;
39022;SDS011;25908;51.984;5.928;2022-08-30T13:31:40;3.63;;;1.10;;
39022;SDS011;25908;51.984;5.928;2022-08-30T13:34:06;4.05;;;1.20;;
39022;SDS011;25908;51.984;5.928;2022-08-30T13:36:33;3.50;;;0.93;;
39022;SDS011;25908;51.984;5.928;2022-08-30T13:39:00;3.95;;;1.25;;
39022;SDS011;25908;51.984;5.928;2022-08-30T13:41:27;3.35;;;0.90;;
39022;SDS011;25908;51.984;5.928;2022-08-30T13:43:53;2.60;;;1.00;;
39022;SDS011;25908;51.984;5.928;2022-08-30T13:46:19;3.33;;;1.00;;
39022;SDS011;25908;51.984;5.928;2022-08-30T13:48:48;3.70;;;1.10;;
39022;SDS011;25908;51.984;5.928;2022-08-30T13:51:16;4.00;;;1.15;;
39022;SDS011;25908;51.984;5.928;2022-08-30T13:53:41;2.05;;;0.82;;
39022;SDS011;25908;51.984;5.928;2022-08-30T13:56:07;2.28;;;1.00;;
39022;SDS011;25908;51.984;5.928;2022-08-30T13:58:33;2.35;;;1.10;;
39022;SDS011;25908;51.984;5.928;2022-08-30T14:00:58;2.05;;;1.00;;
39022;SDS011;25908;51.984;5.928;2022-08-30T14:03:24;6.55;;;0.80;;
39022;SDS011;25908;51.984;5.928;2022-08-30T14:05:50;6.68;;;1.30;;
39022;SDS011;25908;51.984;5.928;2022-08-30T14:08:21;3.92;;;1.00;;
39022;SDS011;25908;51.984;5.928;2022-08-30T14:10:48;1.55;;;0.90;;
39022;SDS011;25908;51.984;5.928;2022-08-30T14:13:14;3.20;;;1.05;;
39022;SDS011;25908;51.984;5.928;2022-08-30T14:15:39;2.35;;;1.15;;
39022;SDS011;25908;51.984;5.928;2022-08-30T14:18:05;3.50;;;1.40;;
39022;SDS011;25908;51.984;5.928;2022-08-30T14:20:32;2.75;;;1.08;;
39022;SDS011;25908;51.984;5.928;2022-08-30T14:22:59;1.65;;;1.00;;
39022;SDS011;25908;51.984;5.928;2022-08-30T14:25:25;3.65;;;1.20;;
39022;SDS011;25908;51.984;5.928;2022-08-30T14:27:53;2.13;;;1.00;;
39022;SDS011;25908;51.984;5.928;2022-08-30T14:30:19;5.35;;;1.23;;
39022;SDS011;25908;51.984;5.928;2022-08-30T14:32:45;4.00;;;1.25;;
39022;SDS011;25908;51.984;5.928;2022-08-30T14:35:11;2.40;;;0.98;;
39022;SDS011;25908;51.984;5.928;2022-08-30T14:37:37;2.75;;;0.98;;
39022;SDS011;25908;51.984;5.928;2022-08-30T14:40:03;5.75;;;0.98;;
39022;SDS011;25908;51.984;5.928;2022-08-30T14:42:29;4.03;;;1.02;;
39022;SDS011;25908;51.984;5.928;2022-08-30T14:44:54;1.95;;;0.82;;
39022;SDS011;25908;51.984;5.928;2022-08-30T14:47:20;4.68;;;1.23;;
39022;SDS011;25908;51.984;5.928;2022-08-30T14:49:45;3.72;;;1.23;;
39022;SDS011;25908;51.984;5.928;2022-08-30T14:52:11;4.20;;;1.00;;
39022;SDS011;25908;51.984;5.928;2022-08-30T14:54:36;2.35;;;1.02;;
39022;SDS011;25908;51.984;5.928;2022-08-30T14:57:02;4.07;;;1.13;;
39022;SDS011;25908;51.984;5.928;2022-08-30T14:59:27;4.22;;;1.13;;
39022;SDS011;25908;51.984;5.928;2022-08-30T15:01:53;2.45;;;0.95;;
39022;SDS011;25908;51.984;5.928;2022-08-30T15:04:19;4.95;;;1.15;;
39022;SDS011;25908;51.984;5.928;2022-08-30T15:06:45;3.35;;;1.00;;
39022;SDS011;25908;51.984;5.928;2022-08-30T15:09:13;3.75;;;1.20;;
39022;SDS011;25908;51.984;5.928;2022-08-30T15:11:42;2.92;;;1.00;;
39022;SDS011;25908;51.984;5.928;2022-08-30T15:14:09;3.78;;;1.00;;
39022;SDS011;25908;51.984;5.928;2022-08-30T15:16:35;2.75;;;0.82;;
39022;SDS011;25908;51.984;5.928;2022-08-30T15:19:02;3.35;;;1.10;;
39022;SDS011;25908;51.984;5.928;2022-08-30T15:21:30;3.05;;;1.10;;
39022;SDS011;25908;51.984;5.928;2022-08-30T15:24:22;2.65;;;1.35;;
39022;SDS011;25908;51.984;5.928;2022-08-30T15:26:48;5.18;;;1.52;;
39022;SDS011;25908;51.984;5.928;2022-08-30T15:29:15;3.00;;;1.05;;
39022;SDS011;25908;51.984;5.928;2022-08-30T15:31:43;4.63;;;1.10;;
39022;SDS011;25908;51.984;5.928;2022-08-30T15:34:10;4.05;;;1.20;;
39022;SDS011;25908;51.984;5.928;2022-08-30T15:36:38;2.40;;;1.00;;
39022;SDS011;25908;51.984;5.928;2022-08-30T15:39:05;3.28;;;1.60;;
39022;SDS011;25908;51.984;5.928;2022-08-30T15:41:31;2.05;;;1.10;;
39022;SDS011;25908;51.984;5.928;2022-08-30T15:43:57;4.28;;;1.20;;
39022;SDS011;25908;51.984;5.928;2022-08-30T15:46:27;3.08;;;1.00;;
39022;SDS011;25908;51.984;5.928;2022-08-30T15:48:59;2.78;;;1.30;;
39022;SDS011;25908;51.984;5.928;2022-08-30T15:51:28;2.17;;;0.93;;
39022;SDS011;25908;51.984;5.928;2022-08-30T15:53:54;3.38;;;1.17;;
39022;SDS011;25908;51.984;5.928;2022-08-30T15:56:20;4.88;;;1.15;;
39022;SDS011;25908;51.984;5.928;2022-08-30T15:58:45;1.92;;;0.95;;
39022;SDS011;25908;51.984;5.928;2022-08-30T16:01:11;2.10;;;1.05;;
39022;SDS011;25908;51.984;5.928;2022-08-30T16:03:38;4.88;;;1.20;;
39022;SDS011;25908;51.984;5.928;2022-08-30T16:06:08;1.45;;;0.98;;